sensor_id;sensor_type;location;lat;lon;timestamp;temperature;humidity
24158;DHT22;12316;50.904;4.200;2023-07-20T00:01:16;17.40;99.90
24158;DHT22;12316;50.904;4.200;2023-07-20T00:03:41;17.50;99.90
24158;DHT22;12316;50.904;4.200;2023-07-20T00:06:07;17.60;99.90
24158;DHT22;12316;50.904;4.200;2023-07-20T00:08:33;17.60;99.90
24158;DHT22;12316;50.904;4.200;2023-07-20T00:10:59;17.70;99.90
24158;DHT22;12316;50.904;4.200;2023-07-20T00:13:24;17.70;99.90
24158;DHT22;12316;50.904;4.200;2023-07-20T00:15:51;17.80;99.90
24158;DHT22;12316;50.904;4.200;2023-07-20T00:18:17;17.80;99.90
24158;DHT22;12316;50.904;4.200;2023-07-20T00:20:42;17.90;99.90
24158;DHT22;12316;50.904;4.200;2023-07-20T00:23:08;17.80;99.90
24158;DHT22;12316;50.904;4.200;2023-07-20T00:25:34;17.90;99.90
24158;DHT22;12316;50.904;4.200;2023-07-20T00:28:00;17.90;99.90
24158;DHT22;12316;50.904;4.200;2023-07-20T00:30:26;17.70;99.90
24158;DHT22;12316;50.904;4.200;2023-07-20T00:32:52;17.80;99.90
24158;DHT22;12316;50.904;4.200;2023-07-20T00:35:17;17.80;99.90
24158;DHT22;12316;50.904;4.200;2023-07-20T00:37:43;17.70;99.90
24158;DHT22;12316;50.904;4.200;2023-07-20T00:40:09;17.70;99.90
24158;DHT22;12316;50.904;4.200;2023-07-20T00:42:35;17.60;99.90
24158;DHT22;12316;50.904;4.200;2023-07-20T00:45:00;17.70;99.90
24158;DHT22;12316;50.904;4.200;2023-07-20T00:47:27;17.60;99.90
24158;DHT22;12316;50.904;4.200;2023-07-20T00:49:53;17.40;99.90
24158;DHT22;12316;50.904;4.200;2023-07-20T00:52:20;17.10;99.90
24158;DHT22;12316;50.904;4.200;2023-07-20T00:54:47;17.30;99.90
24158;DHT22;12316;50.904;4.200;2023-07-20T00:57:14;17.30;99.90
24158;DHT22;12316;50.904;4.200;2023-07-20T00:59:41;17.40;99.90
24158;DHT22;12316;50.904;4.200;2023-07-20T01:02:07;17.30;99.90
24158;DHT22;12316;50.904;4.200;2023-07-20T01:04:33;17.40;99.90
24158;DHT22;12316;50.904;4.200;2023-07-20T01:07:11;17.40;99.90
24158;DHT22;12316;50.904;4.200;2023-07-20T01:12:43;17.30;99.90
24158;DHT22;12316;50.904;4.200;2023-07-20T01:15:12;17.20;99.90
24158;DHT22;12316;50.904;4.200;2023-07-20T01:17:37;17.20;99.90
24158;DHT22;12316;50.904;4.200;2023-07-20T01:20:04;17.20;99.90
24158;DHT22;12316;50.904;4.200;2023-07-20T01:25:40;17.20;99.90
24158;DHT22;12316;50.904;4.200;2023-07-20T01:34:17;17.20;99.90
24158;DHT22;12316;50.904;4.200;2023-07-20T01:36:44;17.20;99.90
24158;DHT22;12316;50.904;4.200;2023-07-20T01:39:11;17.30;99.90
24158;DHT22;12316;50.904;4.200;2023-07-20T01:41:37;17.20;99.90
24158;DHT22;12316;50.904;4.200;2023-07-20T01:44:04;17.10;99.90
24158;DHT22;12316;50.904;4.200;2023-07-20T01:46:29;16.90;99.90
24158;DHT22;12316;50.904;4.200;2023-07-20T01:48:55;16.80;99.90
24158;DHT22;12316;50.904;4.200;2023-07-20T01:51:21;16.80;99.90
24158;DHT22;12316;50.904;4.200;2023-07-20T01:53:46;17.00;99.90
24158;DHT22;12316;50.904;4.200;2023-07-20T01:56:12;17.10;99.90
24158;DHT22;12316;50.904;4.200;2023-07-20T01:58:38;17.10;99.90
24158;DHT22;12316;50.904;4.200;2023-07-20T02:01:04;17.10;99.90
24158;DHT22;12316;50.904;4.200;2023-07-20T02:03:29;17.20;99.90
24158;DHT22;12316;50.904;4.200;2023-07-20T02:05:55;17.10;99.90
24158;DHT22;12316;50.904;4.200;2023-07-20T02:08:22;17.00;99.90
24158;DHT22;12316;50.904;4.200;2023-07-20T02:10:48;16.90;99.90
24158;DHT22;12316;50.904;4.200;2023-07-20T02:13:14;16.80;99.90
24158;DHT22;12316;50.904;4.200;2023-07-20T02:15:40;16.80;99.90
24158;DHT22;12316;50.904;4.200;2023-07-20T02:18:07;16.80;99.90
24158;DHT22;12316;50.904;4.200;2023-07-20T02:20:33;16.90;99.90
24158;DHT22;12316;50.904;4.200;2023-07-20T02:22:59;16.80;99.90
24158;DHT22;12316;50.904;4.200;2023-07-20T02:25:24;16.50;99.90
24158;DHT22;12316;50.904;4.200;2023-07-20T02:27:50;16.40;99.90
24158;DHT22;12316;50.904;4.200;2023-07-20T02:30:15;16.30;99.90
24158;DHT22;12316;50.904;4.200;2023-07-20T02:32:41;16.10;99.90
24158;DHT22;12316;50.904;4.200;2023-07-20T02:35:11;16.10;99.90
24158;DHT22;12316;50.904;4.200;2023-07-20T02:37:36;16.00;99.90
24158;DHT22;12316;50.904;4.200;2023-07-20T02:40:02;16.20;99.90
24158;DHT22;12316;50.904;4.200;2023-07-20T02:42:29;16.20;99.90
24158;DHT22;12316;50.904;4.200;2023-07-20T02:44:55;16.20;99.90
24158;DHT22;12316;50.904;4.200;2023-07-20T02:47:20;16.10;99.90
24158;DHT22;12316;50.904;4.200;2023-07-20T02:49:46;16.20;99.90
24158;DHT22;12316;50.904;4.200;2023-07-20T02:52:12;16.20;99.90
24158;DHT22;12316;50.904;4.200;2023-07-20T02:54:37;16.00;99.90
24158;DHT22;12316;50.904;4.200;2023-07-20T02:57:03;15.70;99.90
24158;DHT22;12316;50.904;4.200;2023-07-20T02:59:29;15.80;99.90
24158;DHT22;12316;50.904;4.200;2023-07-20T03:01:55;15.90;99.90
24158;DHT22;12316;50.904;4.200;2023-07-20T03:04:21;15.70;99.90
24158;DHT22;12316;50.904;4.200;2023-07-20T03:06:47;15.70;99.90
24158;DHT22;12316;50.904;4.200;2023-07-20T03:09:12;15.70;99.90
24158;DHT22;12316;50.904;4.200;2023-07-20T03:11:38;15.80;99.90
24158;DHT22;12316;50.904;4.200;2023-07-20T03:14:04;16.20;99.90
24158;DHT22;12316;50.904;4.200;2023-07-20T03:16:29;16.40;99.90
24158;DHT22;12316;50.904;4.200;2023-07-20T03:18:59;16.20;99.90
24158;DHT22;12316;50.904;4.200;2023-07-20T03:21:25;16.10;99.90
24158;DHT22;12316;50.904;4.200;2023-07-20T03:23:51;16.40;99.90
24158;DHT22;12316;50.904;4.200;2023-07-20T03:26:16;16.60;99.90
24158;DHT22;12316;50.904;4.200;2023-07-20T03:28:42;16.60;99.90
24158;DHT22;12316;50.904;4.200;2023-07-20T03:31:08;16.60;99.90
24158;DHT22;12316;50.904;4.200;2023-07-20T03:33:34;16.60;99.90
24158;DHT22;12316;50.904;4.200;2023-07-20T03:35:59;16.80;99.90
24158;DHT22;12316;50.904;4.200;2023-07-20T03:38:26;17.00;99.90
24158;DHT22;12316;50.904;4.200;2023-07-20T03:40:58;17.10;99.90
24158;DHT22;12316;50.904;4.200;2023-07-20T03:43:25;17.10;99.90
24158;DHT22;12316;50.904;4.200;2023-07-20T03:45:51;17.10;99.90
24158;DHT22;12316;50.904;4.200;2023-07-20T03:48:18;17.20;99.90
24158;DHT22;12316;50.904;4.200;2023-07-20T03:50:47;17.10;99.90
24158;DHT22;12316;50.904;4.200;2023-07-20T03:53:13;17.20;99.90
24158;DHT22;12316;50.904;4.200;2023-07-20T03:55:40;17.10;99.90
24158;DHT22;12316;50.904;4.200;2023-07-20T03:58:09;17.10;99.90
24158;DHT22;12316;50.904;4.200;2023-07-20T04:00:35;17.10;99.90
24158;DHT22;12316;50.904;4.200;2023-07-20T04:03:01;17.20;99.90
24158;DHT22;12316;50.904;4.200;2023-07-20T04:05:26;17.30;99.90
24158;DHT22;12316;50.904;4.200;2023-07-20T04:07:52;17.50;99.90
24158;DHT22;12316;50.904;4.200;2023-07-20T04:10:18;17.50;99.90
24158;DHT22;12316;50.904;4.200;2023-07-20T04:12:44;17.50;99.90
24158;DHT22;12316;50.904;4.200;2023-07-20T04:15:15;17.30;99.90
24158;DHT22;12316;50.904;4.200;2023-07-20T04:17:41;17.20;99.90
24158;DHT22;12316;50.904;4.200;2023-07-20T04:20:07;17.30;99.90
24158;DHT22;12316;50.904;4.200;2023-07-20T04:22:33;17.30;99.90
24158;DHT22;12316;50.904;4.200;2023-07-20T04:24:59;17.30;99.90
24158;DHT22;12316;50.904;4.200;2023-07-20T04:27:25;17.50;99.90
24158;DHT22;12316;50.904;4.200;2023-07-20T04:29:50;17.60;99.90
24158;DHT22;12316;50.904;4.200;2023-07-20T04:32:16;17.70;99.90
24158;DHT22;12316;50.904;4.200;2023-07-20T04:34:42;17.70;99.90
24158;DHT22;12316;50.904;4.200;2023-07-20T04:37:07;17.80;99.90
24158;DHT22;12316;50.904;4.200;2023-07-20T04:39:33;17.80;99.90
24158;DHT22;12316;50.904;4.200;2023-07-20T04:41:59;17.80;99.90
24158;DHT22;12316;50.904;4.200;2023-07-20T04:44:24;17.90;99.90
24158;DHT22;12316;50.904;4.200;2023-07-20T04:46:50;17.90;99.90
24158;DHT22;12316;50.904;4.200;2023-07-20T04:49:16;17.90;99.90
24158;DHT22;12316;50.904;4.200;2023-07-20T04:51:41;18.00;99.90
24158;DHT22;12316;50.904;4.200;2023-07-20T04:54:07;18.00;99.90
24158;DHT22;12316;50.904;4.200;2023-07-20T04:56:33;18.10;99.90
24158;DHT22;12316;50.904;4.200;2023-07-20T04:58:58;18.10;99.90
24158;DHT22;12316;50.904;4.200;2023-07-20T05:01:24;18.10;99.90
24158;DHT22;12316;50.904;4.200;2023-07-20T05:03:50;18.10;99.90
24158;DHT22;12316;50.904;4.200;2023-07-20T05:06:15;18.10;99.90
24158;DHT22;12316;50.904;4.200;2023-07-20T05:08:41;18.10;99.90
24158;DHT22;12316;50.904;4.200;2023-07-20T05:11:07;18.00;99.90
24158;DHT22;12316;50.904;4.200;2023-07-20T05:13:33;18.00;99.90
24158;DHT22;12316;50.904;4.200;2023-07-20T05:15:59;18.00;99.90
24158;DHT22;12316;50.904;4.200;2023-07-20T05:18:24;18.00;99.90
24158;DHT22;12316;50.904;4.200;2023-07-20T05:20:50;17.90;99.90
24158;DHT22;12316;50.904;4.200;2023-07-20T05:23:17;17.90;99.90
24158;DHT22;12316;50.904;4.200;2023-07-20T05:25:43;18.00;99.90
24158;DHT22;12316;50.904;4.200;2023-07-20T05:28:09;18.10;99.90
24158;DHT22;12316;50.904;4.200;2023-07-20T05:30:35;18.20;99.90
24158;DHT22;12316;50.904;4.200;2023-07-20T05:33:00;18.30;99.90
24158;DHT22;12316;50.904;4.200;2023-07-20T05:35:26;18.30;99.90
24158;DHT22;12316;50.904;4.200;2023-07-20T05:37:52;18.40;99.90
24158;DHT22;12316;50.904;4.200;2023-07-20T05:40:17;18.40;99.90
24158;DHT22;12316;50.904;4.200;2023-07-20T05:42:45;18.40;99.90
24158;DHT22;12316;50.904;4.200;2023-07-20T05:45:12;18.40;99.90
24158;DHT22;12316;50.904;4.200;2023-07-20T05:47:38;18.40;99.90
24158;DHT22;12316;50.904;4.200;2023-07-20T05:50:03;18.50;99.90
24158;DHT22;12316;50.904;4.200;2023-07-20T05:52:29;18.50;99.90
24158;DHT22;12316;50.904;4.200;2023-07-20T05:54:55;18.50;99.90
24158;DHT22;12316;50.904;4.200;2023-07-20T05:57:21;18.60;99.90
24158;DHT22;12316;50.904;4.200;2023-07-20T05:59:46;18.70;99.90
24158;DHT22;12316;50.904;4.200;2023-07-20T06:02:12;18.70;99.90
24158;DHT22;12316;50.904;4.200;2023-07-20T06:04:39;18.80;99.90
24158;DHT22;12316;50.904;4.200;2023-07-20T06:07:05;19.00;99.90
24158;DHT22;12316;50.904;4.200;2023-07-20T06:09:30;19.10;99.90
24158;DHT22;12316;50.904;4.200;2023-07-20T06:11:56;18.90;99.90
24158;DHT22;12316;50.904;4.200;2023-07-20T06:14:22;18.90;99.90
24158;DHT22;12316;50.904;4.200;2023-07-20T06:16:48;18.90;99.90
24158;DHT22;12316;50.904;4.200;2023-07-20T06:19:13;19.10;99.90
24158;DHT22;12316;50.904;4.200;2023-07-20T06:21:39;19.30;99.90
24158;DHT22;12316;50.904;4.200;2023-07-20T06:24:05;19.50;99.90
24158;DHT22;12316;50.904;4.200;2023-07-20T06:26:30;19.70;99.90
24158;DHT22;12316;50.904;4.200;2023-07-20T06:28:56;19.70;99.90
24158;DHT22;12316;50.904;4.200;2023-07-20T06:31:22;19.50;99.90
24158;DHT22;12316;50.904;4.200;2023-07-20T06:33:48;19.30;99.90
24158;DHT22;12316;50.904;4.200;2023-07-20T06:36:15;19.40;99.90
24158;DHT22;12316;50.904;4.200;2023-07-20T06:38:41;19.60;99.90
24158;DHT22;12316;50.904;4.200;2023-07-20T06:41:06;19.70;99.90
24158;DHT22;12316;50.904;4.200;2023-07-20T06:43:32;19.70;99.90
24158;DHT22;12316;50.904;4.200;2023-07-20T06:45:58;19.90;99.90
24158;DHT22;12316;50.904;4.200;2023-07-20T06:48:23;20.10;99.90
24158;DHT22;12316;50.904;4.200;2023-07-20T06:50:49;20.20;99.90
24158;DHT22;12316;50.904;4.200;2023-07-20T06:53:14;20.40;99.90
24158;DHT22;12316;50.904;4.200;2023-07-20T06:55:42;20.50;99.90
24158;DHT22;12316;50.904;4.200;2023-07-20T06:58:08;20.70;99.90
24158;DHT22;12316;50.904;4.200;2023-07-20T07:00:33;20.70;99.90
24158;DHT22;12316;50.904;4.200;2023-07-20T07:02:59;20.70;99.90
24158;DHT22;12316;50.904;4.200;2023-07-20T07:05:24;21.00;99.90
24158;DHT22;12316;50.904;4.200;2023-07-20T07:07:50;20.90;99.90
24158;DHT22;12316;50.904;4.200;2023-07-20T07:10:16;21.00;99.90
24158;DHT22;12316;50.904;4.200;2023-07-20T07:12:41;21.20;99.90
24158;DHT22;12316;50.904;4.200;2023-07-20T07:15:07;21.50;99.90
24158;DHT22;12316;50.904;4.200;2023-07-20T07:17:33;21.60;99.90
24158;DHT22;12316;50.904;4.200;2023-07-20T07:20:00;21.50;99.90
24158;DHT22;12316;50.904;4.200;2023-07-20T07:22:26;21.40;99.90
24158;DHT22;12316;50.904;4.200;2023-07-20T07:24:51;21.50;99.90
24158;DHT22;12316;50.904;4.200;2023-07-20T07:27:17;21.70;99.90
24158;DHT22;12316;50.904;4.200;2023-07-20T07:29:43;21.80;99.90
24158;DHT22;12316;50.904;4.200;2023-07-20T07:32:10;22.00;99.90
24158;DHT22;12316;50.904;4.200;2023-07-20T07:34:36;22.00;99.90
24158;DHT22;12316;50.904;4.200;2023-07-20T07:37:02;21.90;99.90
24158;DHT22;12316;50.904;4.200;2023-07-20T07:39:28;22.10;99.90
24158;DHT22;12316;50.904;4.200;2023-07-20T07:41:55;22.40;99.90
24158;DHT22;12316;50.904;4.200;2023-07-20T07:44:20;22.70;99.90
24158;DHT22;12316;50.904;4.200;2023-07-20T07:46:46;23.00;99.90
24158;DHT22;12316;50.904;4.200;2023-07-20T07:49:12;23.10;99.90
24158;DHT22;12316;50.904;4.200;2023-07-20T07:51:38;23.30;99.90
24158;DHT22;12316;50.904;4.200;2023-07-20T07:54:04;23.20;99.90
24158;DHT22;12316;50.904;4.200;2023-07-20T07:56:30;23.20;99.90
24158;DHT22;12316;50.904;4.200;2023-07-20T07:58:55;23.20;99.90
24158;DHT22;12316;50.904;4.200;2023-07-20T08:01:21;23.10;99.90
24158;DHT22;12316;50.904;4.200;2023-07-20T08:03:47;22.80;99.90
24158;DHT22;12316;50.904;4.200;2023-07-20T08:06:13;22.60;99.90
24158;DHT22;12316;50.904;4.200;2023-07-20T08:08:39;22.60;99.90
24158;DHT22;12316;50.904;4.200;2023-07-20T08:11:05;22.60;99.90
24158;DHT22;12316;50.904;4.200;2023-07-20T08:13:31;22.70;99.90
24158;DHT22;12316;50.904;4.200;2023-07-20T08:15:57;22.90;99.90
24158;DHT22;12316;50.904;4.200;2023-07-20T08:18:23;22.80;99.90
24158;DHT22;12316;50.904;4.200;2023-07-20T08:20:48;22.70;99.90
24158;DHT22;12316;50.904;4.200;2023-07-20T08:23:14;22.70;99.90
24158;DHT22;12316;50.904;4.200;2023-07-20T08:25:40;22.90;99.90
24158;DHT22;12316;50.904;4.200;2023-07-20T08:28:10;22.90;99.90
24158;DHT22;12316;50.904;4.200;2023-07-20T08:30:54;22.90;99.90
24158;DHT22;12316;50.904;4.200;2023-07-20T08:33:20;22.80;99.90
24158;DHT22;12316;50.904;4.200;2023-07-20T08:35:46;23.00;99.90
24158;DHT22;12316;50.904;4.200;2023-07-20T08:38:12;23.00;99.90
24158;DHT22;12316;50.904;4.200;2023-07-20T08:40:43;23.20;99.90
24158;DHT22;12316;50.904;4.200;2023-07-20T08:43:13;23.10;99.90
24158;DHT22;12316;50.904;4.200;2023-07-20T08:45:42;23.20;99.90
24158;DHT22;12316;50.904;4.200;2023-07-20T08:48:08;23.20;99.90
24158;DHT22;12316;50.904;4.200;2023-07-20T08:50:35;23.10;99.90
24158;DHT22;12316;50.904;4.200;2023-07-20T08:53:01;22.80;99.90
24158;DHT22;12316;50.904;4.200;2023-07-20T08:55:28;22.60;99.90
24158;DHT22;12316;50.904;4.200;2023-07-20T08:57:55;22.30;99.90
24158;DHT22;12316;50.904;4.200;2023-07-20T09:00:22;22.20;99.90
24158;DHT22;12316;50.904;4.200;2023-07-20T09:02:50;22.20;99.90
24158;DHT22;12316;50.904;4.200;2023-07-20T09:05:17;22.20;99.90
24158;DHT22;12316;50.904;4.200;2023-07-20T09:07:43;22.40;99.90
24158;DHT22;12316;50.904;4.200;2023-07-20T09:10:09;22.70;99.90
24158;DHT22;12316;50.904;4.200;2023-07-20T09:12:37;22.80;99.90
24158;DHT22;12316;50.904;4.200;2023-07-20T09:15:04;22.90;99.90
24158;DHT22;12316;50.904;4.200;2023-07-20T09:17:30;23.00;99.90
24158;DHT22;12316;50.904;4.200;2023-07-20T09:19:55;23.40;99.90
24158;DHT22;12316;50.904;4.200;2023-07-20T09:22:21;23.60;99.90
24158;DHT22;12316;50.904;4.200;2023-07-20T09:24:47;23.90;99.90
24158;DHT22;12316;50.904;4.200;2023-07-20T09:27:12;24.30;99.90
24158;DHT22;12316;50.904;4.200;2023-07-20T09:29:51;24.40;99.90
24158;DHT22;12316;50.904;4.200;2023-07-20T09:32:20;24.50;99.90
24158;DHT22;12316;50.904;4.200;2023-07-20T09:34:47;24.50;99.90
24158;DHT22;12316;50.904;4.200;2023-07-20T09:37:13;24.60;99.90
24158;DHT22;12316;50.904;4.200;2023-07-20T09:39:43;24.40;99.90
24158;DHT22;12316;50.904;4.200;2023-07-20T09:42:11;24.30;99.90
24158;DHT22;12316;50.904;4.200;2023-07-20T09:44:38;24.20;99.90
24158;DHT22;12316;50.904;4.200;2023-07-20T09:47:04;24.10;99.90
24158;DHT22;12316;50.904;4.200;2023-07-20T09:49:30;24.00;99.90
24158;DHT22;12316;50.904;4.200;2023-07-20T09:51:58;24.10;99.90
24158;DHT22;12316;50.904;4.200;2023-07-20T09:54:26;24.30;99.90
24158;DHT22;12316;50.904;4.200;2023-07-20T09:56:54;24.60;99.90
24158;DHT22;12316;50.904;4.200;2023-07-20T09:59:21;25.00;99.90
24158;DHT22;12316;50.904;4.200;2023-07-20T10:01:47;25.20;99.90
24158;DHT22;12316;50.904;4.200;2023-07-20T10:04:16;25.30;99.90
24158;DHT22;12316;50.904;4.200;2023-07-20T10:06:47;25.30;99.90
24158;DHT22;12316;50.904;4.200;2023-07-20T10:09:15;25.40;99.80
24158;DHT22;12316;50.904;4.200;2023-07-20T10:11:46;25.50;99.90
24158;DHT22;12316;50.904;4.200;2023-07-20T10:14:18;25.40;98.00
24158;DHT22;12316;50.904;4.200;2023-07-20T10:16:51;25.20;97.80
24158;DHT22;12316;50.904;4.200;2023-07-20T10:19:43;24.80;97.90
24158;DHT22;12316;50.904;4.200;2023-07-20T10:22:16;24.70;98.80
24158;DHT22;12316;50.904;4.200;2023-07-20T10:24:46;24.60;98.90
24158;DHT22;12316;50.904;4.200;2023-07-20T10:27:12;24.50;99.40
24158;DHT22;12316;50.904;4.200;2023-07-20T10:29:39;24.50;99.60
24158;DHT22;12316;50.904;4.200;2023-07-20T10:32:06;24.70;99.90
24158;DHT22;12316;50.904;4.200;2023-07-20T10:34:32;25.00;99.90
24158;DHT22;12316;50.904;4.200;2023-07-20T10:36:59;25.10;99.90
24158;DHT22;12316;50.904;4.200;2023-07-20T10:39:26;24.90;99.80
24158;DHT22;12316;50.904;4.200;2023-07-20T10:42:09;25.00;99.20
24158;DHT22;12316;50.904;4.200;2023-07-20T10:44:37;25.00;98.60
24158;DHT22;12316;50.904;4.200;2023-07-20T10:47:10;25.20;98.40
24158;DHT22;12316;50.904;4.200;2023-07-20T10:49:38;25.20;98.30
24158;DHT22;12316;50.904;4.200;2023-07-20T10:52:21;25.20;98.40
24158;DHT22;12316;50.904;4.200;2023-07-20T10:54:47;25.00;98.20
24158;DHT22;12316;50.904;4.200;2023-07-20T10:57:24;25.00;98.30
24158;DHT22;12316;50.904;4.200;2023-07-20T10:59:50;24.80;97.80
24158;DHT22;12316;50.904;4.200;2023-07-20T11:02:20;24.60;97.70
24158;DHT22;12316;50.904;4.200;2023-07-20T11:04:47;24.80;97.50
24158;DHT22;12316;50.904;4.200;2023-07-20T11:07:17;24.80;97.70
24158;DHT22;12316;50.904;4.200;2023-07-20T11:10:13;24.90;98.00
24158;DHT22;12316;50.904;4.200;2023-07-20T11:12:40;25.00;97.20
24158;DHT22;12316;50.904;4.200;2023-07-20T11:15:06;24.90;97.30
24158;DHT22;12316;50.904;4.200;2023-07-20T11:17:33;25.00;97.70
24158;DHT22;12316;50.904;4.200;2023-07-20T11:20:00;24.90;97.50
24158;DHT22;12316;50.904;4.200;2023-07-20T11:22:31;24.60;97.90
24158;DHT22;12316;50.904;4.200;2023-07-20T11:24:57;24.60;98.30
24158;DHT22;12316;50.904;4.200;2023-07-20T11:27:23;24.50;98.10
24158;DHT22;12316;50.904;4.200;2023-07-20T11:29:49;24.40;98.80
24158;DHT22;12316;50.904;4.200;2023-07-20T11:32:22;24.50;98.60
24158;DHT22;12316;50.904;4.200;2023-07-20T11:34:48;24.60;98.20
24158;DHT22;12316;50.904;4.200;2023-07-20T11:37:15;24.70;98.10
24158;DHT22;12316;50.904;4.200;2023-07-20T11:39:41;24.80;98.60
24158;DHT22;12316;50.904;4.200;2023-07-20T11:42:07;24.90;98.10
24158;DHT22;12316;50.904;4.200;2023-07-20T11:44:33;24.80;98.20
24158;DHT22;12316;50.904;4.200;2023-07-20T11:47:08;25.00;98.30
24158;DHT22;12316;50.904;4.200;2023-07-20T11:49:35;25.20;98.00
24158;DHT22;12316;50.904;4.200;2023-07-20T11:52:06;25.40;97.50
24158;DHT22;12316;50.904;4.200;2023-07-20T11:54:33;25.60;97.30
24158;DHT22;12316;50.904;4.200;2023-07-20T11:57:01;25.80;96.30
24158;DHT22;12316;50.904;4.200;2023-07-20T11:59:27;26.00;96.00
24158;DHT22;12316;50.904;4.200;2023-07-20T12:01:53;26.30;96.20
24158;DHT22;12316;50.904;4.200;2023-07-20T12:04:18;26.50;95.60
24158;DHT22;12316;50.904;4.200;2023-07-20T12:06:45;26.70;95.00
24158;DHT22;12316;50.904;4.200;2023-07-20T12:09:17;26.80;94.70
24158;DHT22;12316;50.904;4.200;2023-07-20T12:11:44;27.00;95.20
24158;DHT22;12316;50.904;4.200;2023-07-20T12:14:12;27.10;95.30
24158;DHT22;12316;50.904;4.200;2023-07-20T12:16:38;27.10;94.20
24158;DHT22;12316;50.904;4.200;2023-07-20T12:19:09;26.70;94.50
24158;DHT22;12316;50.904;4.200;2023-07-20T12:21:36;26.60;93.60
24158;DHT22;12316;50.904;4.200;2023-07-20T12:24:02;26.10;94.10
24158;DHT22;12316;50.904;4.200;2023-07-20T12:26:29;25.80;94.10
24158;DHT22;12316;50.904;4.200;2023-07-20T12:28:55;25.50;94.60
24158;DHT22;12316;50.904;4.200;2023-07-20T12:31:21;25.40;95.00
24158;DHT22;12316;50.904;4.200;2023-07-20T12:33:48;25.20;95.00
24158;DHT22;12316;50.904;4.200;2023-07-20T12:36:14;24.90;95.70
24158;DHT22;12316;50.904;4.200;2023-07-20T12:38:40;24.80;96.10
24158;DHT22;12316;50.904;4.200;2023-07-20T12:41:07;24.70;96.00
24158;DHT22;12316;50.904;4.200;2023-07-20T12:43:33;24.40;96.60
24158;DHT22;12316;50.904;4.200;2023-07-20T12:45:59;24.30;97.00
24158;DHT22;12316;50.904;4.200;2023-07-20T12:48:25;24.20;96.80
24158;DHT22;12316;50.904;4.200;2023-07-20T12:50:51;24.30;96.50
24158;DHT22;12316;50.904;4.200;2023-07-20T12:53:17;24.30;96.60
24158;DHT22;12316;50.904;4.200;2023-07-20T12:55:43;24.10;96.90
24158;DHT22;12316;50.904;4.200;2023-07-20T12:58:09;24.00;97.10
24158;DHT22;12316;50.904;4.200;2023-07-20T13:00:36;24.00;96.90
24158;DHT22;12316;50.904;4.200;2023-07-20T13:03:02;24.00;97.40
24158;DHT22;12316;50.904;4.200;2023-07-20T13:05:31;24.10;97.40
24158;DHT22;12316;50.904;4.200;2023-07-20T13:07:57;24.00;97.30
24158;DHT22;12316;50.904;4.200;2023-07-20T13:10:24;23.90;97.50
24158;DHT22;12316;50.904;4.200;2023-07-20T13:12:50;23.90;98.00
24158;DHT22;12316;50.904;4.200;2023-07-20T13:15:16;23.70;98.60
24158;DHT22;12316;50.904;4.200;2023-07-20T13:17:42;23.60;98.70
24158;DHT22;12316;50.904;4.200;2023-07-20T13:20:09;23.50;99.40
24158;DHT22;12316;50.904;4.200;2023-07-20T13:22:36;23.30;99.70
24158;DHT22;12316;50.904;4.200;2023-07-20T13:25:02;23.00;99.90
24158;DHT22;12316;50.904;4.200;2023-07-20T13:27:28;22.80;99.90
24158;DHT22;12316;50.904;4.200;2023-07-20T13:29:55;22.60;99.90
24158;DHT22;12316;50.904;4.200;2023-07-20T13:32:22;22.50;99.90
24158;DHT22;12316;50.904;4.200;2023-07-20T13:34:47;22.70;99.90
24158;DHT22;12316;50.904;4.200;2023-07-20T13:37:14;22.70;99.90
24158;DHT22;12316;50.904;4.200;2023-07-20T13:39:39;22.70;99.90
24158;DHT22;12316;50.904;4.200;2023-07-20T13:42:05;22.80;99.90
24158;DHT22;12316;50.904;4.200;2023-07-20T13:44:31;22.90;99.90
24158;DHT22;12316;50.904;4.200;2023-07-20T13:46:57;22.90;99.90
24158;DHT22;12316;50.904;4.200;2023-07-20T13:49:23;23.00;99.90
24158;DHT22;12316;50.904;4.200;2023-07-20T13:51:48;23.00;99.90
24158;DHT22;12316;50.904;4.200;2023-07-20T13:54:14;23.10;99.90
24158;DHT22;12316;50.904;4.200;2023-07-20T13:56:40;23.10;99.90
24158;DHT22;12316;50.904;4.200;2023-07-20T13:59:05;23.30;99.90
24158;DHT22;12316;50.904;4.200;2023-07-20T14:01:31;23.30;99.90
24158;DHT22;12316;50.904;4.200;2023-07-20T14:03:59;23.50;99.90
24158;DHT22;12316;50.904;4.200;2023-07-20T14:06:25;23.60;99.90
24158;DHT22;12316;50.904;4.200;2023-07-20T14:08:51;23.70;99.90
24158;DHT22;12316;50.904;4.200;2023-07-20T14:11:18;23.90;99.90
24158;DHT22;12316;50.904;4.200;2023-07-20T14:13:44;24.20;99.90
24158;DHT22;12316;50.904;4.200;2023-07-20T14:16:10;24.40;99.90
24158;DHT22;12316;50.904;4.200;2023-07-20T14:18:36;24.40;98.90
24158;DHT22;12316;50.904;4.200;2023-07-20T14:21:02;24.20;98.90
24158;DHT22;12316;50.904;4.200;2023-07-20T14:23:29;24.10;99.10
24158;DHT22;12316;50.904;4.200;2023-07-20T14:25:54;24.00;98.50
24158;DHT22;12316;50.904;4.200;2023-07-20T14:28:20;24.20;98.10
24158;DHT22;12316;50.904;4.200;2023-07-20T14:30:46;24.30;98.20
24158;DHT22;12316;50.904;4.200;2023-07-20T14:33:12;24.30;97.80
24158;DHT22;12316;50.904;4.200;2023-07-20T14:35:37;24.10;97.30
24158;DHT22;12316;50.904;4.200;2023-07-20T14:38:03;24.20;98.10
24158;DHT22;12316;50.904;4.200;2023-07-20T14:40:29;24.60;97.60
24158;DHT22;12316;50.904;4.200;2023-07-20T14:42:55;24.70;97.10
24158;DHT22;12316;50.904;4.200;2023-07-20T14:45:21;24.50;96.70
24158;DHT22;12316;50.904;4.200;2023-07-20T14:47:47;24.20;96.80
24158;DHT22;12316;50.904;4.200;2023-07-20T14:50:19;24.10;97.10
24158;DHT22;12316;50.904;4.200;2023-07-20T14:52:45;24.00;97.40
24158;DHT22;12316;50.904;4.200;2023-07-20T14:55:10;24.00;97.70
24158;DHT22;12316;50.904;4.200;2023-07-20T14:57:36;23.90;97.80
24158;DHT22;12316;50.904;4.200;2023-07-20T15:00:03;24.00;96.70
24158;DHT22;12316;50.904;4.200;2023-07-20T15:02:34;23.80;97.40
24158;DHT22;12316;50.904;4.200;2023-07-20T15:05:00;23.80;96.80
24158;DHT22;12316;50.904;4.200;2023-07-20T15:07:25;23.80;97.00
24158;DHT22;12316;50.904;4.200;2023-07-20T15:09:51;23.80;97.30
24158;DHT22;12316;50.904;4.200;2023-07-20T15:12:16;23.80;97.50
24158;DHT22;12316;50.904;4.200;2023-07-20T15:14:43;23.70;98.00
24158;DHT22;12316;50.904;4.200;2023-07-20T15:17:11;23.50;98.10
24158;DHT22;12316;50.904;4.200;2023-07-20T15:19:37;23.20;98.90
24158;DHT22;12316;50.904;4.200;2023-07-20T15:22:03;22.60;99.90
24158;DHT22;12316;50.904;4.200;2023-07-20T15:24:30;21.70;99.90
24158;DHT22;12316;50.904;4.200;2023-07-20T15:26:55;21.00;99.90
24158;DHT22;12316;50.904;4.200;2023-07-20T15:29:23;20.30;99.90
24158;DHT22;12316;50.904;4.200;2023-07-20T15:31:48;19.70;99.90
24158;DHT22;12316;50.904;4.200;2023-07-20T15:34:14;19.20;99.90
24158;DHT22;12316;50.904;4.200;2023-07-20T15:36:41;18.70;99.90
24158;DHT22;12316;50.904;4.200;2023-07-20T15:39:07;18.20;99.90